Time;durP1;ratioP1;P1;durP2;ratioP2;P2;SDS_P1;SDS_P2;PMS_P1;PMS_P2;Temp;Humidity;BMP_temperature;BMP_pressure;BME280_temperature;BME280_humidity;BME280_pressure;Samples;Min_cycle;Max_cycle;Signal;HPM_P1;HPM_P2
2022/10/01 00:09:15;;;;;;;21.27;13.57;;;;;;;8.55;100.00;100035.22;20807777;28;20091;-71
2022/10/01 00:19:16;;;;;;;21.48;13.25;;;;;;;8.51;100.00;100038.75;20819591;28;20466;-72
2022/10/01 00:29:18;;;;;;;21.92;13.55;;;;;;;8.45;100.00;100041.44;20819836;28;20049;-72
2022/10/01 00:39:19;;;;;;;19.80;13.73;;;;;;;8.41;100.00;100038.00;20816983;28;20073;-72
2022/10/01 00:49:20;;;;;;;21.40;13.20;;;;;;;8.45;100.00;100024.03;20817034;28;20084;-72
2022/10/01 00:59:22;;;;;;;20.02;12.43;;;;;;;8.42;100.00;100013.63;20816485;28;20509;-71
2022/10/01 01:09:23;;;;;;;18.13;11.57;;;;;;;8.43;100.00;100014.50;20814735;28;20072;-72
2022/10/01 01:19:24;;;;;;;15.30;9.70;;;;;;;8.52;100.00;99998.72;20814808;28;20053;-72
2022/10/01 01:29:26;;;;;;;14.30;8.70;;;;;;;8.56;100.00;99978.66;20815871;28;20060;-72
2022/10/01 01:39:27;;;;;;;14.18;8.45;;;;;;;8.61;100.00;99969.03;20813481;28;20642;-72
2022/10/01 01:49:28;;;;;;;13.57;8.23;;;;;;;8.57;100.00;99949.94;20813042;28;20052;-73
2022/10/01 01:59:30;;;;;;;11.77;7.55;;;;;;;8.64;100.00;99950.72;20812007;28;20061;-73
2022/10/01 02:09:31;;;;;;;9.10;5.47;;;;;;;8.78;100.00;99940.06;20810734;28;20065;-73
2022/10/01 02:19:33;;;;;;;8.02;5.00;;;;;;;8.99;100.00;99932.75;20810659;28;20439;-73
2022/10/01 02:29:34;;;;;;;7.25;4.63;;;;;;;9.22;100.00;99918.44;20810283;28;20061;-72
2022/10/01 02:39:36;;;;;;;6.43;4.10;;;;;;;9.32;100.00;99917.38;20808758;28;20084;-72
2022/10/01 02:49:40;;;;;;;9.77;3.65;;;;;;;9.37;100.00;99920.75;20808284;28;20148;-72
2022/10/01 02:59:41;;;;;;;6.83;3.60;;;;;;;9.47;100.00;99914.47;20807728;28;20060;-72
2022/10/01 03:09:42;;;;;;;6.20;3.45;;;;;;;9.64;100.00;99889.78;20806689;28;20136;-73
2022/10/01 03:19:44;;;;;;;5.28;2.85;;;;;;;9.66;100.00;99885.38;20808034;28;20080;-72
2022/10/01 03:29:45;;;;;;;5.60;2.90;;;;;;;9.85;100.00;99870.16;20807828;28;20053;-73
2022/10/01 03:39:46;;;;;;;4.68;2.50;;;;;;;9.93;100.00;99861.25;20805721;28;20140;-73
2022/10/01 03:49:48;;;;;;;5.40;2.70;;;;;;;10.08;100.00;99857.44;20819980;28;20049;-72
2022/10/01 03:59:49;;;;;;;7.45;2.67;;;;;;;10.15;100.00;99855.53;20821418;28;20084;-72
2022/10/01 04:09:50;;;;;;;4.45;2.53;;;;;;;10.22;100.00;99850.16;20820829;28;20069;-73
2022/10/01 04:19:51;;;;;;;7.07;2.72;;;;;;;10.22;100.00;99842.28;20818074;28;20080;-73
2022/10/01 04:29:54;;;;;;;7.32;3.65;;;;;;;10.24;100.00;99856.22;20817104;28;20556;-73
2022/10/01 04:39:55;;;;;;;6.07;2.50;;;;;;;10.19;100.00;99855.44;20817416;28;20485;-71
2022/10/01 04:49:56;;;;;;;5.53;2.80;;;;;;;10.09;100.00;99840.00;20816953;28;20073;-71
2022/10/01 04:59:58;;;;;;;5.97;2.97;;;;;;;9.94;100.00;99831.59;20815437;28;20053;-71
2022/10/01 05:09:59;;;;;;;7.47;3.50;;;;;;;9.96;100.00;99826.31;20814471;28;20092;-71
2022/10/01 05:20:00;;;;;;;9.82;3.25;;;;;;;9.85;100.00;99810.88;20814544;28;20521;-71
2022/10/01 05:30:02;;;;;;;6.13;2.58;;;;;;;9.83;100.00;99785.69;20814843;28;20568;-68
2022/10/01 05:40:03;;;;;;;5.88;2.75;;;;;;;9.89;100.00;99775.94;20812704;28;20472;-67
2022/10/01 05:50:05;;;;;;;5.35;2.55;;;;;;;9.96;100.00;99768.78;20812402;28;20521;-67
2022/10/01 06:00:06;;;;;;;7.60;3.50;;;;;;;9.89;100.00;99789.00;20809116;28;20049;-70
2022/10/01 06:10:08;;;;;;;12.30;2.80;;;;;;;9.93;100.00;99782.81;20808966;28;20053;-70
2022/10/01 06:20:11;;;;;;;6.35;2.63;;;;;;;9.97;100.00;99788.84;20809010;28;20076;-70
2022/10/01 06:30:13;;;;;;;7.50;2.70;;;;;;;10.06;100.00;99787.75;20810033;28;20506;-72
2022/10/01 06:40:14;;;;;;;8.30;3.50;;;;;;;10.06;100.00;99777.28;20807940;28;20077;-72
2022/10/01 06:50:16;;;;;;;4.47;2.38;;;;;;;10.14;100.00;99772.72;20808979;28;20050;-71
2022/10/01 07:00:17;;;;;;;6.47;2.67;;;;;;;10.11;100.00;99770.19;20805260;28;20053;-71
2022/10/01 07:10:19;;;;;;;4.63;2.70;;;;;;;10.23;100.00;99769.91;20799062;28;20049;-72
2022/10/01 07:20:21;;;;;;;6.55;2.92;;;;;;;10.19;100.00;99783.94;20801890;28;20045;-72
2022/10/01 07:30:22;;;;;;;7.35;2.25;;;;;;;10.20;100.00;99807.44;20814891;28;20065;-75
2022/10/01 07:40:26;;;;;;;7.15;3.88;;;;;;;10.37;100.00;99835.88;20794253;28;20590;-73
2022/10/01 07:50:29;;;;;;;8.55;4.35;;;;;;;10.38;100.00;99821.88;20769220;28;20053;-76
2022/10/01 08:00:30;;;;;;;7.85;3.00;;;;;;;10.31;100.00;99846.50;20767040;28;20049;-74
2022/10/01 08:10:35;;;;;;;8.25;5.43;;;;;;;10.27;100.00;99834.38;20801414;28;20136;-74
2022/10/01 08:20:38;;;;;;;6.15;2.90;;;;;;;10.23;100.00;99835.31;20817735;28;20050;-76
2022/10/01 08:30:39;;;;;;;5.25;3.13;;;;;;;10.25;100.00;99825.69;20815818;28;20049;-74
2022/10/01 08:40:41;;;;;;;6.93;3.13;;;;;;;10.39;100.00;99848.91;20796905;28;20073;-73
2022/10/01 08:50:42;;;;;;;9.18;7.22;;;;;;;10.25;100.00;99844.88;20816032;28;20057;-72
2022/10/01 09:00:43;;;;;;;6.20;3.38;;;;;;;10.25;100.00;99846.63;20812526;28;20050;-72
2022/10/01 09:10:45;;;;;;;6.68;3.40;;;;;;;10.37;100.00;99850.72;20815002;28;20457;-72
2022/10/01 09:20:46;;;;;;;4.97;2.70;;;;;;;10.41;100.00;99795.66;20812170;28;20148;-71
2022/10/01 09:30:48;;;;;;;6.55;2.80;;;;;;;10.42;100.00;99802.59;20812649;28;20065;-72
2022/10/01 09:40:50;;;;;;;6.60;2.75;;;;;;;10.57;100.00;99806.59;20811379;28;20115;-72
2022/10/01 09:50:57;;;;;;;4.97;2.35;;;;;;;10.83;100.00;99823.38;20809734;28;20073;-71
2022/10/01 10:01:00;;;;;;;4.45;2.22;;;;;;;10.98;100.00;99823.00;20809868;28;20076;-72
2022/10/01 10:11:01;;;;;;;5.18;2.90;;;;;;;11.06;100.00;99815.78;20809251;28;20079;-73
2022/10/01 10:21:02;;;;;;;6.22;2.53;;;;;;;11.23;100.00;99815.31;20807242;28;20073;-73
2022/10/01 10:31:04;;;;;;;6.70;3.15;;;;;;;11.57;100.00;99813.47;20804105;28;20104;-72
2022/10/01 10:41:05;;;;;;;7.30;2.33;;;;;;;11.62;100.00;99809.84;20805824;28;20058;-72
2022/10/01 10:51:06;;;;;;;4.30;2.40;;;;;;;11.74;100.00;99820.84;20806483;28;20429;-72
2022/10/01 11:01:08;;;;;;;6.13;2.30;;;;;;;11.68;100.00;99831.50;20805800;28;20081;-73
2022/10/01 11:11:10;;;;;;;8.10;4.70;;;;;;;11.59;100.00;99831.75;20805929;28;20144;-73
2022/10/01 11:21:11;;;;;;;6.20;2.63;;;;;;;11.62;100.00;99836.06;20804523;28;20140;-72
2022/10/01 11:31:12;;;;;;;4.93;2.80;;;;;;;11.66;100.00;99851.66;20805413;28;20061;-71
2022/10/01 11:41:14;;;;;;;5.50;2.67;;;;;;;12.01;100.00;99847.16;20787304;28;20087;-70
2022/10/01 11:51:16;;;;;;;3.08;1.80;;;;;;;12.21;100.00;99867.53;20803127;28;20092;-72
2022/10/01 12:01:17;;;;;;;5.65;2.55;;;;;;;12.35;100.00;99875.00;20803305;28;20151;-72
2022/10/01 12:11:19;;;;;;;3.05;1.70;;;;;;;12.47;100.00;99893.00;20816782;28;20098;-71
2022/10/01 12:21:20;;;;;;;7.78;1.92;;;;;;;12.58;100.00;99899.63;20817163;28;20077;-71
2022/10/01 12:31:21;;;;;;;4.25;2.10;;;;;;;12.66;100.00;99898.53;20816633;28;20145;-71
2022/10/01 12:41:23;;;;;;;3.78;1.77;;;;;;;13.00;100.00;99886.00;20816514;28;20085;-70
2022/10/01 12:51:24;;;;;;;3.83;1.45;;;;;;;13.57;100.00;99879.63;20815802;28;20091;-71
2022/10/01 13:01:25;;;;;;;3.35;1.25;;;;;;;14.21;100.00;99886.03;20814534;28;20148;-70
2022/10/01 13:11:27;;;;;;;3.25;1.60;;;;;;;14.28;100.00;99882.25;20810074;28;20065;-71
2022/10/01 13:21:29;;;;;;;5.72;2.50;;;;;;;14.66;100.00;99885.13;20811162;28;20458;-71
2022/10/01 13:31:31;;;;;;;3.65;1.80;;;;;;;14.88;100.00;99888.63;20813660;28;20093;-72
2022/10/01 13:41:33;;;;;;;4.20;2.00;;;;;;;15.24;100.00;99898.56;20810066;28;20715;-72
2022/10/01 13:51:35;;;;;;;5.10;2.33;;;;;;;15.26;100.00;99902.81;20809028;28;20520;-72
2022/10/01 14:01:37;;;;;;;4.55;1.55;;;;;;;15.56;100.00;99890.06;20808551;28;20088;-72
2022/10/01 14:21:58;;;;;;;3.65;1.63;;;;;;;15.56;100.00;99920.88;20808806;28;20085;-72
2022/10/01 14:32:00;;;;;;;5.13;2.17;;;;;;;15.71;100.00;99917.59;20807192;28;20089;-72
2022/10/01 14:42:01;;;;;;;5.03;1.80;;;;;;;15.34;100.00;99932.38;20807492;28;20149;-72
2022/10/01 14:52:02;;;;;;;6.13;3.13;;;;;;;15.50;100.00;99929.91;20803374;28;20164;-72
2022/10/01 15:02:04;;;;;;;2.08;0.93;;;;;;;15.43;100.00;99941.69;20803268;28;20049;-72
2022/10/01 15:12:05;;;;;;;3.13;1.10;;;;;;;15.42;100.00;99954.91;20805281;28;20050;-71
2022/10/01 15:22:07;;;;;;;3.08;1.10;;;;;;;15.25;100.00;99951.22;20805184;28;20065;-72
2022/10/01 15:32:08;;;;;;;3.35;1.15;;;;;;;14.94;100.00;99959.53;20803114;28;20244;-71
2022/10/01 15:42:10;;;;;;;3.72;1.60;;;;;;;14.77;100.00;99962.00;20813000;28;20088;-72
2022/10/01 16:02:33;;;;;;;27.95;25.17;;;;;;;14.48;100.00;99998.25;20813767;28;20045;-72
2022/10/01 16:12:35;;;;;;;9.68;4.72;;;;;;;14.34;100.00;100001.38;20815196;28;20076;-74
2022/10/01 16:22:38;;;;;;;8.15;4.07;;;;;;;14.27;100.00;99999.00;20813123;28;20133;-72
2022/10/01 16:32:39;;;;;;;4.38;2.35;;;;;;;14.15;100.00;100021.41;20814303;28;20492;-72
2022/10/01 16:42:41;;;;;;;6.80;3.15;;;;;;;14.07;100.00;100037.47;20814667;28;20077;-72
2022/10/01 16:52:42;;;;;;;5.13;1.73;;;;;;;13.99;100.00;100047.44;20834870;22;20084;-68
2022/10/01 17:02:44;;;;;;;4.07;1.40;;;;;;;13.92;100.00;100066.97;20812396;28;20057;-68
2022/10/01 17:12:46;;;;;;;7.07;2.88;;;;;;;13.95;100.00;100097.59;20812519;28;20050;-69
2022/10/01 17:22:47;;;;;;;6.15;2.20;;;;;;;13.74;100.00;100110.53;20811662;28;20494;-69
2022/10/01 17:32:49;;;;;;;5.05;2.10;;;;;;;13.65;100.00;100120.50;20811012;28;20087;-69
2022/10/01 17:42:50;;;;;;;7.05;2.35;;;;;;;13.51;100.00;100147.25;20810304;28;20209;-69
2022/10/01 17:52:52;;;;;;;9.20;3.30;;;;;;;13.46;100.00;100171.09;20809016;28;20494;-70
2022/10/01 18:02:54;;;;;;;6.68;3.30;;;;;;;13.36;100.00;100190.69;20807333;28;20049;-70
2022/10/01 18:12:56;;;;;;;4.93;2.25;;;;;;;13.27;100.00;100204.09;20807985;28;20053;-69
2022/10/01 18:22:57;;;;;;;7.68;2.58;;;;;;;13.19;100.00;100221.88;20806985;28;20111;-70
2022/10/01 18:33:00;;;;;;;6.65;2.53;;;;;;;13.12;100.00;100215.03;20806921;28;21427;-69
2022/10/01 18:43:01;;;;;;;11.27;2.67;;;;;;;13.06;100.00;100237.97;20806009;28;20077;-69
2022/10/01 18:53:02;;;;;;;6.85;2.67;;;;;;;13.21;100.00;100259.47;20803688;28;20148;-69
2022/10/01 19:03:04;;;;;;;10.38;4.22;;;;;;;13.20;100.00;100281.41;20802712;28;20084;-69
2022/10/01 19:13:05;;;;;;;7.50;2.97;;;;;;;13.23;100.00;100312.94;20801709;28;20112;-69
2022/10/01 19:23:07;;;;;;;8.60;3.17;;;;;;;13.25;100.00;100327.72;20803223;28;20064;-68
2022/10/01 19:33:08;;;;;;;5.60;1.92;;;;;;;13.31;100.00;100350.38;20801617;28;20053;-68
2022/10/01 19:43:09;;;;;;;7.68;1.90;;;;;;;13.34;100.00;100360.81;20798102;28;20462;-68
2022/10/01 19:53:10;;;;;;;7.78;2.60;;;;;;;13.30;100.00;100367.91;20796674;28;20054;-67
2022/10/01 20:03:12;;;;;;;9.30;2.13;;;;;;;13.31;100.00;100395.94;20799122;28;20077;-72
2022/10/01 20:13:13;;;;;;;9.82;2.20;;;;;;;13.20;100.00;100397.97;20799349;28;20059;-73
2022/10/01 20:23:14;;;;;;;6.38;2.22;;;;;;;13.19;100.00;100411.16;20800412;28;20060;-72
2022/10/01 20:33:18;;;;;;;7.93;2.28;;;;;;;13.18;100.00;100419.94;20814328;28;20080;-72
2022/10/01 20:43:20;;;;;;;6.17;2.30;;;;;;;13.12;100.00;100427.97;20814642;28;20054;-72
2022/10/01 20:53:21;;;;;;;8.45;2.65;;;;;;;13.07;100.00;100439.47;20813479;28;20073;-73
2022/10/01 21:03:23;;;;;;;9.75;3.17;;;;;;;13.07;100.00;100457.00;20812964;28;20099;-72
2022/10/01 21:13:24;;;;;;;7.45;2.80;;;;;;;13.14;100.00;100463.00;20813434;28;20080;-73
2022/10/01 21:23:26;;;;;;;7.85;3.13;;;;;;;13.00;100.00;100479.97;20815701;28;20506;-72
2022/10/01 21:33:27;;;;;;;7.10;2.40;;;;;;;12.98;100.00;100488.78;20819266;28;20635;-72
2022/10/01 21:43:28;;;;;;;8.50;2.63;;;;;;;12.95;100.00;100502.88;20814002;28;20049;-73
2022/10/01 21:53:30;;;;;;;8.48;2.75;;;;;;;12.96;100.00;100524.75;20810137;28;20065;-74
2022/10/01 22:03:32;;;;;;;6.70;2.50;;;;;;;12.89;100.00;100531.94;20811098;28;20060;-73
2022/10/01 22:13:33;;;;;;;7.00;3.10;;;;;;;12.70;100.00;100535.88;20811588;28;20073;-73
2022/10/01 22:23:34;;;;;;;9.80;3.80;;;;;;;12.56;100.00;100541.44;20808120;28;20057;-73
2022/10/01 22:33:36;;;;;;;10.13;4.20;;;;;;;12.56;100.00;100546.69;20811882;28;20107;-73
2022/10/01 22:53:49;;;;;;;13.48;3.15;;;;;;;12.70;100.00;100564.78;20752301;28;20112;-70
2022/10/01 23:03:50;;;;;;;11.63;3.28;;;;;;;12.69;100.00;100556.00;20807935;28;20072;-70
2022/10/01 23:13:52;;;;;;;8.70;3.67;;;;;;;12.83;100.00;100597.75;20807509;28;20073;-69
2022/10/01 23:23:53;;;;;;;8.73;3.00;;;;;;;12.89;100.00;100596.72;20806136;28;20483;-69
2022/10/01 23:33:54;;;;;;;7.90;3.67;;;;;;;12.91;100.00;100601.06;20805524;28;20136;-69
2022/10/01 23:43:56;;;;;;;7.82;2.70;;;;;;;12.94;100.00;100622.03;20806530;28;20081;-69
2022/10/01 23:53:57;;;;;;;12.32;3.00;;;;;;;12.99;100.00;100635.09;20805391;28;20080;-70
